Time;durP1;ratioP1;P1;durP2;ratioP2;P2;SDS_P1;SDS_P2;PMS_P1;PMS_P2;Temp;Humidity;BMP_temperature;BMP_pressure;BME280_temperature;BME280_humidity;BME280_pressure;Samples;Min_cycle;Max_cycle;Signal;HPM_P1;HPM_P2
2022/11/23 00:01:50;;;;;;;4.43;2.55;;;8.80;99.90;;;;;;10509408;28;20043;-63
2022/11/23 00:06:51;;;;;;;5.93;2.70;;;8.70;99.90;;;;;;10526343;28;20024;-63
2022/11/23 00:11:52;;;;;;;4.95;2.50;;;8.80;99.90;;;;;;10509398;28;20043;-63
2022/11/23 00:16:52;;;;;;;3.78;2.55;;;8.80;99.90;;;;;;10519361;28;20332;-63
2022/11/23 00:21:53;;;;;;;4.63;2.55;;;8.80;99.90;;;;;;10519271;28;20035;-63
2022/11/23 00:26:53;;;;;;;6.25;3.15;;;8.80;99.90;;;;;;10515829;28;20027;-63
2022/11/23 00:31:54;;;;;;;4.95;2.70;;;8.80;99.90;;;;;;10521994;28;20077;-63
2022/11/23 00:36:55;;;;;;;4.15;2.42;;;8.80;99.90;;;;;;10497419;28;20046;-63
2022/11/23 00:41:55;;;;;;;3.35;2.47;;;8.80;99.90;;;;;;10484322;28;20035;-65
2022/11/23 00:46:56;;;;;;;3.53;2.60;;;8.80;99.90;;;;;;10511624;28;20016;-62
2022/11/23 00:51:57;;;;;;;6.28;2.90;;;8.80;99.90;;;;;;10509992;28;20655;-63
2022/11/23 00:56:58;;;;;;;5.70;2.60;;;8.80;99.90;;;;;;10525186;28;20089;-63
2022/11/23 01:01:58;;;;;;;4.95;2.60;;;8.80;99.90;;;;;;10525933;28;20037;-64
2022/11/23 01:06:59;;;;;;;5.63;2.42;;;8.80;99.90;;;;;;10525149;28;20036;-63
2022/11/23 01:12:00;;;;;;;6.43;2.50;;;8.80;99.90;;;;;;10496860;28;20020;-63
2022/11/23 01:17:01;;;;;;;4.25;2.30;;;8.80;99.90;;;;;;10522283;28;20040;-63
2022/11/23 01:22:02;;;;;;;5.47;2.85;;;8.90;99.90;;;;;;10520257;28;20513;-63
2022/11/23 01:27:03;;;;;;;5.05;2.75;;;8.90;99.90;;;;;;10520693;28;20115;-64
2022/11/23 01:32:03;;;;;;;4.30;2.60;;;8.80;99.90;;;;;;10517474;28;20438;-63
2022/11/23 01:37:04;;;;;;;7.80;3.17;;;8.90;99.90;;;;;;10524662;28;20331;-64
2022/11/23 01:42:07;;;;;;;6.05;2.80;;;8.90;99.90;;;;;;10506736;28;20046;-64
2022/11/23 01:47:08;;;;;;;5.65;2.92;;;8.90;99.90;;;;;;10506358;28;20033;-64
2022/11/23 01:52:13;;;;;;;7.10;2.63;;;8.90;99.90;;;;;;10492515;28;20388;-64
2022/11/23 01:57:26;;;;;;;6.47;2.80;;;8.90;99.90;;;;;;10524060;28;20024;-63
2022/11/23 02:02:30;;;;;;;5.57;2.70;;;8.90;99.90;;;;;;10487816;28;20039;-64
2022/11/23 02:07:32;;;;;;;4.38;2.55;;;8.90;99.90;;;;;;10527718;28;20021;-63
2022/11/23 02:12:33;;;;;;;4.60;2.85;;;8.90;99.90;;;;;;10521440;28;20044;-63
2022/11/23 02:17:33;;;;;;;4.50;2.67;;;9.10;99.90;;;;;;10499732;28;20024;-66
2022/11/23 02:22:50;;;;;;;4.20;2.13;;;9.10;99.90;;;;;;10511432;28;20093;-63
2022/11/23 02:27:52;;;;;;;4.90;2.83;;;9.00;99.90;;;;;;10526329;28;20720;-64
2022/11/23 02:32:53;;;;;;;4.25;2.60;;;8.90;99.90;;;;;;10528337;28;20031;-63
2022/11/23 02:37:54;;;;;;;5.95;2.67;;;9.00;99.90;;;;;;10517402;28;20032;-63
2022/11/23 02:42:55;;;;;;;3.35;2.45;;;9.00;99.90;;;;;;10530063;28;20030;-64
2022/11/23 02:47:56;;;;;;;5.22;2.67;;;8.90;99.90;;;;;;10512194;28;20025;-63
2022/11/23 02:52:57;;;;;;;5.80;3.17;;;9.00;99.90;;;;;;10517707;28;20016;-64
2022/11/23 02:57:57;;;;;;;5.28;2.70;;;9.00;99.90;;;;;;10526223;28;20028;-64
2022/11/23 03:03:00;;;;;;;3.70;2.90;;;9.00;99.90;;;;;;10515212;28;20038;-64
2022/11/23 03:08:00;;;;;;;5.60;3.20;;;9.20;99.90;;;;;;10507036;28;20131;-65
2022/11/23 03:13:01;;;;;;;4.35;2.88;;;9.00;99.90;;;;;;10521581;28;20242;-64
2022/11/23 03:18:02;;;;;;;5.85;3.17;;;9.30;99.90;;;;;;10525258;28;20516;-66
2022/11/23 03:23:03;;;;;;;5.18;2.90;;;9.00;99.90;;;;;;10523749;28;20042;-63
2022/11/23 03:28:04;;;;;;;5.45;2.97;;;9.00;99.90;;;;;;10512669;28;20063;-64
2022/11/23 03:33:04;;;;;;;6.55;3.17;;;9.00;99.90;;;;;;10497675;28;20020;-63
2022/11/23 03:38:05;;;;;;;5.18;3.05;;;9.00;99.90;;;;;;10525121;28;20078;-66
2022/11/23 03:43:06;;;;;;;5.70;3.40;;;9.00;99.90;;;;;;10496311;28;20369;-64
2022/11/23 03:48:07;;;;;;;7.88;3.45;;;9.00;99.90;;;;;;10526746;28;20372;-64
2022/11/23 03:53:08;;;;;;;8.95;4.20;;;9.00;99.90;;;;;;10509026;28;20573;-65
2022/11/23 03:58:08;;;;;;;8.95;4.18;;;9.00;99.90;;;;;;10527000;28;20036;-64
2022/11/23 04:03:09;;;;;;;7.35;4.22;;;9.00;99.90;;;;;;10512697;28;20481;-64
2022/11/23 04:08:10;;;;;;;7.47;4.15;;;9.00;99.90;;;;;;10515185;28;20385;-64
2022/11/23 04:13:11;;;;;;;9.15;4.60;;;9.00;99.90;;;;;;10520643;28;20040;-64
2022/11/23 04:18:12;;;;;;;7.38;4.15;;;9.00;99.90;;;;;;10525587;28;20396;-64
2022/11/23 04:23:12;;;;;;;11.40;5.07;;;9.00;99.90;;;;;;10521919;28;20513;-63
2022/11/23 04:28:13;;;;;;;11.57;5.03;;;9.00;99.90;;;;;;10521357;28;20387;-64
2022/11/23 04:33:14;;;;;;;9.20;4.90;;;9.10;99.90;;;;;;10521096;28;20060;-63
2022/11/23 04:38:15;;;;;;;9.00;5.10;;;9.10;99.90;;;;;;10515514;28;20029;-63
2022/11/23 04:43:15;;;;;;;10.40;5.25;;;9.40;99.90;;;;;;10489067;28;20044;-64
2022/11/23 04:48:16;;;;;;;10.60;5.30;;;9.10;99.90;;;;;;10496389;28;20032;-63
2022/11/23 04:53:17;;;;;;;10.75;5.25;;;9.20;99.90;;;;;;10493411;28;20021;-63
2022/11/23 04:58:24;;;;;;;10.32;4.90;;;9.10;99.90;;;;;;10500867;28;20405;-64
2022/11/23 05:03:25;;;;;;;11.65;5.53;;;9.10;99.90;;;;;;10500504;28;20020;-63
2022/11/23 05:08:26;;;;;;;10.18;5.38;;;9.10;99.90;;;;;;10494903;28;20024;-63
2022/11/23 05:13:27;;;;;;;11.73;5.90;;;9.10;99.90;;;;;;10516106;28;20058;-64
2022/11/23 05:18:28;;;;;;;9.93;5.13;;;9.10;99.90;;;;;;10517514;28;20040;-63
2022/11/23 05:23:29;;;;;;;12.90;5.05;;;9.00;99.90;;;;;;10522565;28;20491;-63
2022/11/23 05:28:29;;;;;;;10.85;5.65;;;9.10;99.90;;;;;;10520284;28;20032;-63
2022/11/23 05:33:30;;;;;;;8.93;5.35;;;9.10;99.90;;;;;;10492359;28;20491;-63
2022/11/23 05:38:31;;;;;;;9.10;5.07;;;9.10;99.90;;;;;;10528233;28;20377;-63
2022/11/23 05:43:32;;;;;;;8.90;5.03;;;9.10;99.90;;;;;;10514313;28;20016;-63
2022/11/23 05:48:33;;;;;;;8.45;5.10;;;9.00;99.90;;;;;;10531399;28;20024;-64
2022/11/23 05:53:34;;;;;;;9.65;4.85;;;9.10;99.90;;;;;;10510570;28;20548;-63
2022/11/23 05:58:34;;;;;;;10.30;5.45;;;9.10;99.90;;;;;;10496219;28;20028;-63
2022/11/23 06:03:35;;;;;;;7.22;4.65;;;9.10;99.90;;;;;;10521532;28;20107;-63
2022/11/23 06:08:36;;;;;;;9.65;4.90;;;9.20;99.90;;;;;;10508824;28;20021;-63
2022/11/23 06:13:37;;;;;;;9.05;3.83;;;9.00;99.90;;;;;;10527289;28;20048;-64
2022/11/23 06:18:38;;;;;;;8.80;4.88;;;9.00;99.90;;;;;;10517122;28;20028;-63
2022/11/23 06:23:38;;;;;;;8.23;4.10;;;9.00;99.90;;;;;;10530928;28;20381;-62
2022/11/23 06:28:40;;;;;;;8.35;4.00;;;9.10;99.90;;;;;;10526375;28;20119;-63
2022/11/23 06:33:40;;;;;;;7.55;4.32;;;9.10;99.90;;;;;;10510159;28;20024;-63
2022/11/23 06:38:41;;;;;;;5.75;3.28;;;9.10;99.90;;;;;;10521164;28;20044;-63
2022/11/23 06:43:42;;;;;;;7.25;3.85;;;9.10;99.90;;;;;;10529180;28;20106;-63
2022/11/23 06:48:43;;;;;;;8.18;3.80;;;9.10;99.90;;;;;;10503082;28;20256;-63
2022/11/23 06:53:44;;;;;;;8.07;3.78;;;9.10;99.90;;;;;;10515517;28;20036;-63
2022/11/23 06:58:45;;;;;;;5.60;3.55;;;9.10;99.90;;;;;;10529180;28;20486;-63
2022/11/23 07:03:46;;;;;;;4.65;3.30;;;9.10;99.90;;;;;;10511964;28;20402;-63
2022/11/23 07:08:47;;;;;;;7.80;3.17;;;9.10;99.90;;;;;;10517638;28;20458;-63
2022/11/23 07:13:48;;;;;;;5.53;3.25;;;9.10;99.90;;;;;;10514329;28;20040;-64
2022/11/23 07:18:48;;;;;;;6.50;2.90;;;9.10;99.90;;;;;;10506735;28;20040;-63
2022/11/23 07:23:49;;;;;;;5.35;3.00;;;9.10;99.90;;;;;;10517308;28;20036;-63
2022/11/23 07:28:50;;;;;;;7.10;3.30;;;9.10;99.90;;;;;;10519940;28;20388;-65
2022/11/23 07:33:52;;;;;;;7.43;3.17;;;9.10;99.90;;;;;;10525031;28;20035;-62
2022/11/23 07:38:53;;;;;;;6.03;2.65;;;9.10;99.90;;;;;;10518230;28;20052;-63
2022/11/23 07:43:53;;;;;;;5.55;3.28;;;9.10;99.90;;;;;;10524990;28;20439;-63
2022/11/23 07:48:58;;;;;;;5.35;2.65;;;9.10;99.90;;;;;;10504593;28;20392;-63
2022/11/23 07:53:59;;;;;;;6.57;2.50;;;9.10;99.90;;;;;;10506542;28;20031;-63
2022/11/23 07:58:59;;;;;;;7.10;2.35;;;9.10;99.90;;;;;;10505389;28;20469;-62
2022/11/23 08:04:01;;;;;;;5.65;2.60;;;9.20;99.90;;;;;;10507624;28;20119;-63
2022/11/23 08:09:02;;;;;;;5.72;2.50;;;9.10;99.90;;;;;;10457177;28;20066;-64
2022/11/23 08:14:03;;;;;;;6.18;2.60;;;9.10;99.90;;;;;;10431172;28;20226;-63
2022/11/23 08:19:03;;;;;;;4.63;2.25;;;9.20;99.90;;;;;;10417163;28;20040;-64
2022/11/23 08:24:04;;;;;;;3.58;2.28;;;9.20;99.90;;;;;;10415045;28;20113;-63
2022/11/23 08:29:05;;;;;;;4.65;2.30;;;9.20;99.90;;;;;;10405917;28;20139;-62
2022/11/23 08:34:06;;;;;;;4.50;2.38;;;9.20;99.90;;;;;;10411500;28;20251;-62
2022/11/23 08:39:09;;;;;;;4.22;1.80;;;9.20;99.90;;;;;;10415208;28;20040;-62
2022/11/23 08:44:11;;;;;;;5.20;2.13;;;9.20;99.90;;;;;;10409999;28;20032;-62
2022/11/23 08:49:12;;;;;;;3.75;2.10;;;9.20;99.90;;;;;;10433878;28;20554;-62
2022/11/23 08:54:13;;;;;;;2.70;1.98;;;9.20;99.90;;;;;;10446401;28;20051;-62
2022/11/23 08:59:13;;;;;;;2.53;1.70;;;9.20;99.90;;;;;;10434646;28;20427;-62
2022/11/23 09:04:14;;;;;;;5.38;2.35;;;9.20;99.90;;;;;;10412086;28;20509;-62
2022/11/23 09:09:15;;;;;;;5.78;2.28;;;9.20;99.90;;;;;;10427860;28;20413;-66
2022/11/23 09:14:16;;;;;;;8.77;2.58;;;9.30;99.90;;;;;;10438866;28;20043;-62
2022/11/23 09:19:16;;;;;;;10.32;3.17;;;9.80;99.90;;;;;;10452657;28;20085;-62
2022/11/23 09:24:17;;;;;;;10.43;3.08;;;9.60;99.90;;;;;;10452995;28;20108;-61
2022/11/23 09:29:18;;;;;;;9.95;2.95;;;9.50;99.90;;;;;;10437562;28;20043;-62
2022/11/23 09:34:18;;;;;;;9.23;2.90;;;9.50;99.90;;;;;;10452606;28;20381;-61
2022/11/23 09:39:19;;;;;;;7.47;3.47;;;9.50;99.90;;;;;;10426860;28;20241;-62
2022/11/23 09:44:34;;;;;;;12.88;3.30;;;9.50;99.90;;;;;;10450971;28;20488;-62
2022/11/23 09:49:54;;;;;;;8.18;2.60;;;9.70;99.90;;;;;;10455205;28;20016;-62
2022/11/23 09:54:59;;;;;;;9.38;2.45;;;9.50;99.90;;;;;;10456637;28;20525;-62
2022/11/23 10:00:15;;;;;;;6.07;2.40;;;9.50;99.90;;;;;;10457369;28;20132;-62
2022/11/23 10:05:24;;;;;;;5.07;2.17;;;9.80;99.90;;;;;;10453911;28;20016;-62
2022/11/23 10:10:36;;;;;;;8.48;2.10;;;9.50;99.90;;;;;;10433020;28;20376;-61
2022/11/23 10:15:50;;;;;;;5.25;2.08;;;9.50;99.90;;;;;;10442440;28;20784;-62
2022/11/23 10:21:09;;;;;;;6.20;2.42;;;9.60;99.90;;;;;;10431596;28;20255;-60
2022/11/23 10:26:19;;;;;;;10.68;2.00;;;9.50;99.90;;;;;;10425175;28;20101;-62
2022/11/23 10:31:22;;;;;;;8.13;1.98;;;9.40;99.90;;;;;;10415220;28;20071;-60
2022/11/23 10:36:23;;;;;;;10.27;1.70;;;9.30;99.90;;;;;;10418528;28;20098;-60
2022/11/23 10:41:24;;;;;;;8.27;1.85;;;9.30;99.90;;;;;;10407112;28;20110;-61
2022/11/23 10:46:45;;;;;;;11.13;1.42;;;9.30;99.90;;;;;;10414342;28;20395;-60
2022/11/23 10:52:04;;;;;;;7.57;1.63;;;9.40;99.90;;;;;;10418609;28;20901;-60
2022/11/23 10:57:21;;;;;;;8.18;2.00;;;9.50;99.90;;;;;;10428313;28;20414;-61
2022/11/23 11:02:22;;;;;;;11.10;2.20;;;9.50;99.90;;;;;;10427729;28;20050;-62
2022/11/23 11:07:29;;;;;;;9.25;1.60;;;9.60;99.90;;;;;;10431655;28;20409;-61
2022/11/23 11:12:33;;;;;;;7.95;2.20;;;9.60;99.90;;;;;;10432306;28;20936;-60
2022/11/23 11:17:34;;;;;;;9.30;1.88;;;9.60;99.90;;;;;;10437112;28;20443;-60
2022/11/23 11:22:36;;;;;;;9.90;1.70;;;9.70;99.90;;;;;;10433680;28;20384;-60
2022/11/23 11:27:37;;;;;;;6.88;1.98;;;9.70;99.90;;;;;;10438751;28;20078;-62
2022/11/23 11:32:57;;;;;;;6.03;1.67;;;9.70;99.90;;;;;;10427814;28;20377;-60
2022/11/23 11:38:21;;;;;;;6.65;1.30;;;9.90;99.90;;;;;;10430524;28;20934;-60
2022/11/23 11:43:30;;;;;;;10.82;1.55;;;9.80;99.90;;;;;;10415480;28;20459;-61
2022/11/23 11:49:18;;;;;;;8.02;1.92;;;9.80;99.90;;;;;;10440604;28;20543;-61
2022/11/23 11:54:45;;;;;;;10.77;1.30;;;9.90;99.90;;;;;;10388298;28;20043;-61
2022/11/23 11:59:56;;;;;;;11.57;1.85;;;9.90;99.90;;;;;;10430664;28;20778;-61
2022/11/23 12:05:06;;;;;;;8.00;1.42;;;10.00;99.90;;;;;;10432591;28;20016;-61
2022/11/23 12:10:16;;;;;;;9.05;1.65;;;10.00;99.90;;;;;;10421147;28;20571;-61
2022/11/23 12:15:20;;;;;;;6.28;1.30;;;10.10;99.90;;;;;;10429111;28;20613;-61
2022/11/23 12:20:35;;;;;;;4.07;1.63;;;10.10;99.90;;;;;;10424411;28;20055;-62
2022/11/23 12:25:40;;;;;;;5.13;1.30;;;10.10;99.90;;;;;;10438045;28;20355;-61
2022/11/23 12:31:01;;;;;;;6.53;1.75;;;10.20;99.90;;;;;;10442439;28;20231;-62
2022/11/23 12:36:11;;;;;;;5.63;1.58;;;10.20;99.90;;;;;;10435634;28;20021;-62
2022/11/23 12:41:36;;;;;;;11.70;2.28;;;10.20;99.90;;;;;;10424973;28;20539;-62
2022/11/23 12:47:17;;;;;;;8.02;1.30;;;10.20;99.90;;;;;;10426859;28;20437;-61
2022/11/23 12:52:35;;;;;;;5.85;1.38;;;10.30;99.90;;;;;;10422122;28;20035;-61
2022/11/23 12:57:48;;;;;;;7.05;1.23;;;10.30;99.90;;;;;;10439361;28;20663;-63
2022/11/23 13:02:58;;;;;;;9.32;1.40;;;10.30;99.90;;;;;;10435957;28;20024;-63
2022/11/23 13:08:21;;;;;;;5.78;1.40;;;10.20;99.90;;;;;;10433044;28;20044;-61
2022/11/23 13:13:48;;;;;;;10.00;1.30;;;10.30;99.90;;;;;;10390477;28;20648;-62
2022/11/23 13:18:59;;;;;;;5.72;1.17;;;10.20;99.90;;;;;;10437828;28;20074;-61
2022/11/23 13:24:00;;;;;;;4.32;0.98;;;10.20;99.90;;;;;;10439766;28;20078;-61
2022/11/23 13:29:50;;;;;;;3.47;0.93;;;10.20;99.90;;;;;;10410889;28;20016;-61
2022/11/23 13:34:50;;;;;;;2.90;1.02;;;10.20;99.90;;;;;;10422556;28;20804;-61
2022/11/23 13:39:57;;;;;;;2.88;1.05;;;10.10;99.90;;;;;;10441646;28;20395;-63
2022/11/23 13:45:19;;;;;;;4.63;1.33;;;10.20;99.90;;;;;;10440235;28;20502;-61
2022/11/23 13:50:20;;;;;;;8.38;1.20;;;10.10;99.90;;;;;;10449813;28;20024;-63
2022/11/23 13:55:37;;;;;;;3.28;0.90;;;10.10;99.90;;;;;;10438575;28;20071;-63
2022/11/23 14:00:52;;;;;;;5.53;1.48;;;10.10;99.90;;;;;;10451965;28;20485;-62
2022/11/23 14:05:58;;;;;;;5.80;1.15;;;10.10;99.90;;;;;;10437437;28;20685;-62
2022/11/23 14:11:00;;;;;;;4.10;1.10;;;10.10;99.90;;;;;;10446928;28;20378;-62
2022/11/23 14:16:02;;;;;;;5.03;1.50;;;10.20;99.90;;;;;;10453904;28;20068;-63
2022/11/23 14:21:32;;;;;;;3.58;1.10;;;10.10;99.90;;;;;;10450162;28;20079;-61
2022/11/23 14:26:49;;;;;;;7.43;1.50;;;10.00;99.90;;;;;;10413423;28;20143;-62
2022/11/23 14:32:11;;;;;;;3.80;1.00;;;10.00;99.90;;;;;;10442189;28;20341;-63
2022/11/23 14:37:27;;;;;;;8.82;1.77;;;10.00;99.90;;;;;;10445797;28;20567;-61
2022/11/23 14:42:30;;;;;;;4.80;1.23;;;10.00;99.90;;;;;;10430167;28;20438;-62
2022/11/23 14:47:31;;;;;;;3.72;1.25;;;10.00;99.90;;;;;;10436707;28;20024;-62
2022/11/23 14:52:34;;;;;;;4.35;1.52;;;10.00;99.90;;;;;;10434353;28;20461;-62
2022/11/23 14:57:45;;;;;;;7.70;1.42;;;10.00;99.90;;;;;;10424207;28;20159;-62
2022/11/23 15:02:45;;;;;;;2.67;0.85;;;10.00;99.90;;;;;;10426292;28;20284;-62
2022/11/23 15:07:53;;;;;;;3.25;1.00;;;9.90;99.90;;;;;;10428367;28;20043;-62
2022/11/23 15:12:54;;;;;;;3.35;1.10;;;9.90;99.90;;;;;;10422499;28;20038;-62
2022/11/23 15:18:00;;;;;;;4.97;1.23;;;9.90;99.90;;;;;;10416437;28;20261;-62
2022/11/23 15:23:01;;;;;;;5.60;1.17;;;9.90;99.90;;;;;;10416469;28;20403;-62
2022/11/23 15:28:02;;;;;;;4.25;1.08;;;9.90;99.90;;;;;;10423980;28;20035;-62
2022/11/23 15:33:10;;;;;;;4.25;1.02;;;9.90;99.90;;;;;;10427013;28;20464;-62
2022/11/23 15:38:13;;;;;;;4.18;1.27;;;9.90;99.90;;;;;;10418064;28;20743;-62
2022/11/23 15:43:17;;;;;;;6.85;1.33;;;9.90;99.90;;;;;;10430935;28;20024;-62
2022/11/23 15:48:21;;;;;;;6.03;1.65;;;9.90;99.90;;;;;;10421648;28;20632;-61
2022/11/23 15:53:47;;;;;;;3.65;1.20;;;9.90;99.90;;;;;;10411537;28;20109;-61
2022/11/23 15:58:50;;;;;;;5.30;1.42;;;9.80;99.90;;;;;;10425110;28;20448;-66
2022/11/23 16:03:59;;;;;;;3.38;1.42;;;9.80;99.90;;;;;;10492774;28;20021;-63
2022/11/23 16:09:00;;;;;;;5.45;1.30;;;9.80;99.90;;;;;;10514916;28;20016;-62
2022/11/23 16:14:27;;;;;;;7.30;1.52;;;9.80;99.90;;;;;;10501532;28;20107;-66
2022/11/23 16:19:29;;;;;;;5.75;2.05;;;9.80;99.90;;;;;;10512152;28;20028;-61
2022/11/23 16:24:32;;;;;;;4.68;1.38;;;9.80;99.90;;;;;;10511338;28;20016;-62
2022/11/23 16:29:35;;;;;;;4.15;1.20;;;9.80;99.90;;;;;;10523339;28;20077;-64
2022/11/23 16:34:36;;;;;;;8.10;1.55;;;9.80;99.90;;;;;;10516156;28;20027;-63
2022/11/23 16:39:37;;;;;;;3.85;1.55;;;9.80;99.90;;;;;;10501133;28;20036;-62
2022/11/23 16:44:39;;;;;;;4.30;1.45;;;9.80;99.90;;;;;;10508491;28;20040;-62
2022/11/23 16:49:40;;;;;;;4.25;1.75;;;9.80;99.90;;;;;;10507493;28;20031;-63
2022/11/23 16:54:41;;;;;;;4.70;1.55;;;9.80;99.90;;;;;;10515224;28;20062;-61
2022/11/23 16:59:41;;;;;;;9.98;1.80;;;9.80;99.90;;;;;;10506152;28;20813;-61
2022/11/23 17:04:43;;;;;;;4.05;1.30;;;9.80;99.90;;;;;;10514146;28;20028;-62
2022/11/23 17:09:44;;;;;;;7.68;1.70;;;9.90;99.90;;;;;;10515362;28;20044;-62
2022/11/23 17:14:47;;;;;;;7.72;1.88;;;9.90;99.90;;;;;;10509672;28;20415;-63
2022/11/23 17:19:49;;;;;;;5.57;1.75;;;9.90;99.90;;;;;;10510509;28;20521;-62
2022/11/23 17:24:52;;;;;;;5.07;1.65;;;9.90;99.90;;;;;;10514846;28;20039;-63
2022/11/23 17:29:58;;;;;;;5.88;1.60;;;9.90;99.90;;;;;;10526114;28;20099;-63
2022/11/23 17:34:59;;;;;;;6.45;1.90;;;9.80;99.90;;;;;;10534112;28;20553;-63
2022/11/23 17:40:00;;;;;;;4.30;1.70;;;9.80;99.90;;;;;;10536612;28;20093;-62
2022/11/23 17:45:01;;;;;;;5.05;2.10;;;9.80;99.90;;;;;;10523415;28;20309;-62
2022/11/23 17:50:01;;;;;;;2.85;1.23;;;9.80;99.90;;;;;;10521001;28;20085;-64
2022/11/23 17:55:03;;;;;;;5.47;1.40;;;9.80;99.90;;;;;;10515150;28;20020;-62
2022/11/23 18:00:20;;;;;;;4.93;1.60;;;9.70;99.90;;;;;;10521367;28;20035;-61
2022/11/23 18:05:21;;;;;;;5.50;1.30;;;9.70;99.90;;;;;;10524943;28;20052;-64
2022/11/23 18:10:21;;;;;;;5.57;1.50;;;9.70;99.90;;;;;;10523702;28;20103;-62
2022/11/23 18:15:22;;;;;;;2.92;1.95;;;9.70;99.90;;;;;;10530589;28;20570;-62
2022/11/23 18:20:23;;;;;;;4.18;1.40;;;9.80;99.90;;;;;;10512021;28;20036;-62
2022/11/23 18:25:23;;;;;;;4.75;1.48;;;9.70;99.90;;;;;;10526314;28;20020;-61
2022/11/23 18:30:24;;;;;;;4.93;1.52;;;9.70;99.90;;;;;;10530499;28;20082;-62
2022/11/23 18:35:24;;;;;;;5.32;1.50;;;9.70;99.90;;;;;;10530701;28;20034;-62
2022/11/23 18:40:26;;;;;;;4.10;1.60;;;9.70;99.90;;;;;;10512633;28;20302;-61
2022/11/23 18:45:27;;;;;;;2.78;1.60;;;9.70;99.90;;;;;;10529091;28;20023;-62
2022/11/23 18:50:28;;;;;;;5.63;1.70;;;9.70;99.90;;;;;;10522147;28;20111;-62
2022/11/23 18:55:28;;;;;;;3.03;1.70;;;9.70;99.90;;;;;;10529229;28;20038;-64
2022/11/23 19:00:29;;;;;;;2.85;1.88;;;9.70;99.90;;;;;;10508179;28;20140;-62
2022/11/23 19:05:33;;;;;;;3.08;2.13;;;9.70;99.90;;;;;;10518546;28;20021;-61
2022/11/23 19:10:36;;;;;;;3.10;1.77;;;9.70;99.90;;;;;;10520177;28;20201;-62
2022/11/23 19:15:36;;;;;;;4.88;2.05;;;9.70;99.90;;;;;;10518095;28;20063;-63
2022/11/23 19:20:38;;;;;;;3.38;2.15;;;9.70;99.90;;;;;;10523938;28;20399;-61
2022/11/23 19:25:40;;;;;;;3.45;2.20;;;9.70;99.90;;;;;;10508366;28;20020;-61
2022/11/23 19:30:41;;;;;;;6.53;2.20;;;9.70;99.90;;;;;;10505812;28;20035;-61
2022/11/23 19:35:41;;;;;;;5.18;2.58;;;9.70;99.90;;;;;;10499483;28;20489;-61
2022/11/23 19:40:42;;;;;;;4.50;2.25;;;9.80;99.90;;;;;;10507121;28;20162;-61
2022/11/23 19:45:43;;;;;;;4.25;2.67;;;9.70;99.90;;;;;;10498274;28;20024;-62
2022/11/23 19:51:00;;;;;;;4.30;2.50;;;9.70;99.90;;;;;;10500224;28;20052;-61
2022/11/23 19:56:03;;;;;;;5.53;2.60;;;9.70;99.90;;;;;;10504089;28;20021;-61
2022/11/23 20:01:09;;;;;;;4.15;2.53;;;9.80;99.90;;;;;;10521431;28;20036;-62
2022/11/23 20:06:18;;;;;;;4.75;2.75;;;9.70;99.90;;;;;;10501972;28;20027;-61
2022/11/23 20:11:18;;;;;;;4.43;3.15;;;9.80;99.90;;;;;;10510356;28;20031;-62
2022/11/23 20:16:20;;;;;;;8.10;3.00;;;9.70;99.90;;;;;;10519728;28;20040;-62
2022/11/23 20:21:21;;;;;;;5.78;2.45;;;9.70;99.90;;;;;;10513869;28;20135;-62
2022/11/23 20:26:22;;;;;;;5.78;3.20;;;9.70;99.90;;;;;;10515269;28;20027;-62
2022/11/23 20:31:28;;;;;;;4.90;2.90;;;9.70;99.90;;;;;;10518774;28;20031;-63
2022/11/23 20:36:33;;;;;;;6.05;3.28;;;9.80;99.90;;;;;;10514904;28;20023;-62
2022/11/23 20:41:35;;;;;;;5.15;3.10;;;9.70;99.90;;;;;;10507652;28;20044;-61
2022/11/23 20:46:36;;;;;;;5.55;3.08;;;9.70;99.90;;;;;;10511440;28;20107;-62
2022/11/23 20:51:37;;;;;;;7.95;3.55;;;9.70;99.90;;;;;;10516916;28;20132;-61
2022/11/23 20:56:38;;;;;;;5.60;3.15;;;9.70;99.90;;;;;;10519970;28;20050;-64
2022/11/23 21:01:42;;;;;;;4.35;2.90;;;9.70;99.90;;;;;;10520989;28;20028;-62
2022/11/23 21:06:42;;;;;;;5.22;3.30;;;9.70;99.90;;;;;;10519693;28;20255;-61
2022/11/23 21:17:03;;;;;;;10.07;3.63;;;9.70;99.90;;;;;;10531851;28;20048;-63
2022/11/23 21:22:12;;;;;;;5.97;3.10;;;9.70;99.90;;;;;;10530143;28;20447;-62
2022/11/23 21:27:15;;;;;;;7.88;3.65;;;9.70;99.90;;;;;;10519071;28;20376;-62
2022/11/23 21:32:16;;;;;;;5.65;4.03;;;9.70;99.90;;;;;;10524433;28;20484;-64
2022/11/23 21:37:16;;;;;;;8.73;4.10;;;9.60;99.90;;;;;;10525388;28;20489;-62
2022/11/23 21:42:17;;;;;;;9.63;3.90;;;9.60;99.90;;;;;;10518122;28;20040;-62
2022/11/23 21:47:18;;;;;;;6.43;3.60;;;9.60;99.90;;;;;;10517590;28;20031;-63
2022/11/23 21:52:18;;;;;;;7.57;3.85;;;9.60;99.90;;;;;;10519911;28;20031;-62
2022/11/23 21:57:19;;;;;;;5.53;3.75;;;9.60;99.90;;;;;;10513829;28;20032;-62
2022/11/23 22:02:20;;;;;;;6.22;3.70;;;9.60;99.90;;;;;;10507773;28;20129;-64
2022/11/23 22:07:20;;;;;;;5.90;3.42;;;9.80;99.90;;;;;;10497019;28;20033;-63
2022/11/23 22:12:22;;;;;;;5.70;3.83;;;9.60;99.90;;;;;;10517608;28;20042;-64
2022/11/23 22:17:22;;;;;;;9.02;3.90;;;9.60;99.90;;;;;;10521868;28;20059;-62
2022/11/23 22:22:23;;;;;;;6.30;4.00;;;9.60;99.90;;;;;;10527285;28;20063;-62
2022/11/23 22:27:24;;;;;;;7.22;3.50;;;9.60;99.90;;;;;;10525957;28;20042;-64
2022/11/23 22:32:24;;;;;;;8.25;3.65;;;9.60;99.90;;;;;;10520754;28;20119;-64
2022/11/23 22:37:25;;;;;;;6.40;3.45;;;9.60;99.90;;;;;;10517135;28;20031;-62
2022/11/23 22:42:26;;;;;;;7.50;3.75;;;9.50;99.90;;;;;;10520094;28;20036;-62
2022/11/23 22:47:26;;;;;;;6.15;3.45;;;9.60;99.90;;;;;;10490531;28;20029;-61
2022/11/23 22:52:27;;;;;;;7.63;3.75;;;9.50;99.90;;;;;;10523196;28;20063;-62
2022/11/23 22:57:28;;;;;;;6.15;3.60;;;9.50;99.90;;;;;;10529565;28;20090;-61
2022/11/23 23:02:28;;;;;;;8.20;3.63;;;9.60;99.90;;;;;;10525336;28;20431;-61
2022/11/23 23:07:30;;;;;;;6.57;3.38;;;9.50;99.90;;;;;;10509448;28;20024;-61
2022/11/23 23:12:30;;;;;;;6.13;3.28;;;9.50;99.90;;;;;;10520865;28;20480;-62
2022/11/23 23:17:31;;;;;;;6.22;3.50;;;9.50;99.90;;;;;;10528697;28;20037;-62
2022/11/23 23:22:32;;;;;;;7.90;3.10;;;9.50;99.90;;;;;;10523977;28;20029;-62
2022/11/23 23:27:33;;;;;;;6.03;3.30;;;9.50;99.90;;;;;;10517256;28;20020;-61
2022/11/23 23:32:33;;;;;;;9.05;3.25;;;9.50;99.90;;;;;;10507185;28;20032;-61
2022/11/23 23:37:34;;;;;;;6.18;2.88;;;9.50;99.90;;;;;;10528253;28;20020;-62
2022/11/23 23:42:35;;;;;;;4.95;3.00;;;9.50;99.90;;;;;;10527588;28;20032;-63
2022/11/23 23:47:36;;;;;;;5.82;2.63;;;9.50;99.90;;;;;;10506246;28;20035;-62
2022/11/23 23:52:37;;;;;;;5.45;2.92;;;9.50;99.90;;;;;;10521416;28;20036;-62
2022/11/23 23:57:38;;;;;;;7.57;3.15;;;9.50;99.90;;;;;;10513368;28;20066;-62
